sensor_id;sensor_type;location;lat;lon;timestamp;P1;durP1;ratioP1;P2;durP2;ratioP2
84355;SDS011;74539;43.518;1.504;2024-02-21T00:00:57;4.65;;;2.58;;
84355;SDS011;74539;43.518;1.504;2024-02-21T00:03:22;5.65;;;2.70;;
84355;SDS011;74539;43.518;1.504;2024-02-21T00:05:49;4.72;;;2.72;;
84355;SDS011;74539;43.518;1.504;2024-02-21T00:08:14;5.70;;;2.67;;
84355;SDS011;74539;43.518;1.504;2024-02-21T00:10:40;4.70;;;2.63;;
84355;SDS011;74539;43.518;1.504;2024-02-21T00:13:05;4.93;;;2.72;;
84355;SDS011;74539;43.518;1.504;2024-02-21T00:15:31;4.53;;;2.67;;
84355;SDS011;74539;43.518;1.504;2024-02-21T00:17:57;4.85;;;2.45;;
84355;SDS011;74539;43.518;1.504;2024-02-21T00:20:22;4.57;;;2.55;;
84355;SDS011;74539;43.518;1.504;2024-02-21T00:22:48;4.53;;;2.47;;
84355;SDS011;74539;43.518;1.504;2024-02-21T00:25:13;4.63;;;2.50;;
84355;SDS011;74539;43.518;1.504;2024-02-21T00:27:39;4.82;;;2.22;;
84355;SDS011;74539;43.518;1.504;2024-02-21T00:30:05;5.05;;;2.47;;
84355;SDS011;74539;43.518;1.504;2024-02-21T00:32:31;4.00;;;2.63;;
84355;SDS011;74539;43.518;1.504;2024-02-21T00:34:59;5.07;;;2.60;;
84355;SDS011;74539;43.518;1.504;2024-02-21T00:37:24;4.55;;;2.72;;
84355;SDS011;74539;43.518;1.504;2024-02-21T00:39:50;4.53;;;2.28;;
84355;SDS011;74539;43.518;1.504;2024-02-21T00:42:15;5.35;;;2.55;;
84355;SDS011;74539;43.518;1.504;2024-02-21T00:44:41;4.97;;;2.47;;
84355;SDS011;74539;43.518;1.504;2024-02-21T00:47:06;6.07;;;2.92;;
84355;SDS011;74539;43.518;1.504;2024-02-21T00:49:32;4.82;;;2.45;;
84355;SDS011;74539;43.518;1.504;2024-02-21T00:51:58;6.32;;;2.58;;
84355;SDS011;74539;43.518;1.504;2024-02-21T00:54:23;4.78;;;2.53;;
84355;SDS011;74539;43.518;1.504;2024-02-21T00:56:49;5.15;;;2.65;;
84355;SDS011;74539;43.518;1.504;2024-02-21T00:59:14;4.63;;;2.58;;
84355;SDS011;74539;43.518;1.504;2024-02-21T01:01:40;3.83;;;2.67;;
84355;SDS011;74539;43.518;1.504;2024-02-21T01:04:09;4.97;;;2.55;;
84355;SDS011;74539;43.518;1.504;2024-02-21T01:06:35;4.68;;;2.55;;
84355;SDS011;74539;43.518;1.504;2024-02-21T01:09:00;4.75;;;2.75;;
84355;SDS011;74539;43.518;1.504;2024-02-21T01:11:26;5.43;;;2.88;;
84355;SDS011;74539;43.518;1.504;2024-02-21T01:13:52;4.32;;;2.47;;
84355;SDS011;74539;43.518;1.504;2024-02-21T01:16:18;4.72;;;2.50;;
84355;SDS011;74539;43.518;1.504;2024-02-21T01:18:43;5.07;;;2.70;;
84355;SDS011;74539;43.518;1.504;2024-02-21T01:21:09;6.47;;;2.63;;
84355;SDS011;74539;43.518;1.504;2024-02-21T01:23:35;4.53;;;2.30;;
84355;SDS011;74539;43.518;1.504;2024-02-21T01:26:02;5.28;;;2.70;;
84355;SDS011;74539;43.518;1.504;2024-02-21T01:28:28;5.70;;;2.75;;
84355;SDS011;74539;43.518;1.504;2024-02-21T01:30:55;4.75;;;2.40;;
84355;SDS011;74539;43.518;1.504;2024-02-21T01:33:21;4.63;;;2.60;;
84355;SDS011;74539;43.518;1.504;2024-02-21T01:35:47;6.45;;;2.75;;
84355;SDS011;74539;43.518;1.504;2024-02-21T01:38:12;4.72;;;2.50;;
84355;SDS011;74539;43.518;1.504;2024-02-21T01:40:38;4.78;;;2.40;;
84355;SDS011;74539;43.518;1.504;2024-02-21T01:43:14;5.63;;;3.22;;
84355;SDS011;74539;43.518;1.504;2024-02-21T01:45:42;4.82;;;2.72;;
84355;SDS011;74539;43.518;1.504;2024-02-21T01:48:07;5.93;;;2.80;;
84355;SDS011;74539;43.518;1.504;2024-02-21T01:50:33;4.65;;;2.42;;
84355;SDS011;74539;43.518;1.504;2024-02-21T01:52:58;5.65;;;2.70;;
84355;SDS011;74539;43.518;1.504;2024-02-21T01:55:25;4.43;;;2.40;;
84355;SDS011;74539;43.518;1.504;2024-02-21T01:57:51;6.15;;;2.63;;
84355;SDS011;74539;43.518;1.504;2024-02-21T02:00:17;5.25;;;2.40;;
84355;SDS011;74539;43.518;1.504;2024-02-21T02:02:43;6.15;;;2.78;;
84355;SDS011;74539;43.518;1.504;2024-02-21T02:05:09;6.03;;;2.47;;
84355;SDS011;74539;43.518;1.504;2024-02-21T02:07:36;4.72;;;2.65;;
84355;SDS011;74539;43.518;1.504;2024-02-21T02:10:01;4.70;;;2.50;;
84355;SDS011;74539;43.518;1.504;2024-02-21T02:12:27;4.15;;;2.45;;
84355;SDS011;74539;43.518;1.504;2024-02-21T02:14:59;4.63;;;2.40;;
84355;SDS011;74539;43.518;1.504;2024-02-21T02:17:31;5.32;;;2.47;;
84355;SDS011;74539;43.518;1.504;2024-02-21T02:19:57;3.95;;;2.15;;
84355;SDS011;74539;43.518;1.504;2024-02-21T02:22:22;4.05;;;2.05;;
84355;SDS011;74539;43.518;1.504;2024-02-21T02:24:57;5.20;;;2.20;;
84355;SDS011;74539;43.518;1.504;2024-02-21T02:27:23;3.92;;;2.25;;
84355;SDS011;74539;43.518;1.504;2024-02-21T02:29:49;4.85;;;2.42;;
84355;SDS011;74539;43.518;1.504;2024-02-21T02:32:15;5.60;;;2.80;;
84355;SDS011;74539;43.518;1.504;2024-02-21T02:34:41;4.38;;;2.42;;
84355;SDS011;74539;43.518;1.504;2024-02-21T02:37:07;3.42;;;2.22;;
84355;SDS011;74539;43.518;1.504;2024-02-21T02:39:32;3.50;;;2.20;;
84355;SDS011;74539;43.518;1.504;2024-02-21T02:41:58;5.22;;;2.58;;
84355;SDS011;74539;43.518;1.504;2024-02-21T02:44:23;4.95;;;2.15;;
84355;SDS011;74539;43.518;1.504;2024-02-21T02:46:49;3.92;;;2.33;;
84355;SDS011;74539;43.518;1.504;2024-02-21T02:49:15;3.75;;;2.25;;
84355;SDS011;74539;43.518;1.504;2024-02-21T02:51:43;4.68;;;2.40;;
84355;SDS011;74539;43.518;1.504;2024-02-21T02:54:09;4.03;;;2.20;;
84355;SDS011;74539;43.518;1.504;2024-02-21T02:56:35;4.82;;;2.30;;
84355;SDS011;74539;43.518;1.504;2024-02-21T02:59:01;4.05;;;2.30;;
84355;SDS011;74539;43.518;1.504;2024-02-21T03:01:26;4.72;;;2.35;;
84355;SDS011;74539;43.518;1.504;2024-02-21T03:03:52;5.53;;;2.28;;
84355;SDS011;74539;43.518;1.504;2024-02-21T03:06:18;5.07;;;2.60;;
84355;SDS011;74539;43.518;1.504;2024-02-21T03:08:44;4.85;;;2.50;;
84355;SDS011;74539;43.518;1.504;2024-02-21T03:11:09;3.80;;;2.30;;
84355;SDS011;74539;43.518;1.504;2024-02-21T03:13:36;4.68;;;2.40;;
84355;SDS011;74539;43.518;1.504;2024-02-21T03:16:01;4.10;;;1.92;;
84355;SDS011;74539;43.518;1.504;2024-02-21T03:18:27;4.28;;;2.30;;
84355;SDS011;74539;43.518;1.504;2024-02-21T03:20:52;3.83;;;2.10;;
84355;SDS011;74539;43.518;1.504;2024-02-21T03:23:18;4.00;;;2.22;;
84355;SDS011;74539;43.518;1.504;2024-02-21T03:25:43;3.53;;;2.22;;
84355;SDS011;74539;43.518;1.504;2024-02-21T03:28:09;4.45;;;2.42;;
84355;SDS011;74539;43.518;1.504;2024-02-21T03:30:34;3.17;;;2.10;;
84355;SDS011;74539;43.518;1.504;2024-02-21T03:33:00;5.53;;;2.17;;
84355;SDS011;74539;43.518;1.504;2024-02-21T03:35:26;3.95;;;2.10;;
84355;SDS011;74539;43.518;1.504;2024-02-21T03:37:52;3.67;;;2.17;;
84355;SDS011;74539;43.518;1.504;2024-02-21T03:40:18;3.17;;;2.22;;
84355;SDS011;74539;43.518;1.504;2024-02-21T03:42:44;3.38;;;2.25;;
84355;SDS011;74539;43.518;1.504;2024-02-21T03:45:09;4.68;;;2.38;;
84355;SDS011;74539;43.518;1.504;2024-02-21T03:47:35;4.88;;;2.47;;
84355;SDS011;74539;43.518;1.504;2024-02-21T03:50:00;3.75;;;2.42;;
84355;SDS011;74539;43.518;1.504;2024-02-21T03:52:26;4.10;;;2.20;;
84355;SDS011;74539;43.518;1.504;2024-02-21T03:54:52;3.78;;;2.13;;
84355;SDS011;74539;43.518;1.504;2024-02-21T03:57:19;3.80;;;2.15;;
84355;SDS011;74539;43.518;1.504;2024-02-21T03:59:45;4.05;;;2.30;;
84355;SDS011;74539;43.518;1.504;2024-02-21T04:02:11;4.85;;;2.53;;
84355;SDS011;74539;43.518;1.504;2024-02-21T04:04:37;3.90;;;2.30;;
84355;SDS011;74539;43.518;1.504;2024-02-21T04:07:03;4.88;;;2.47;;
84355;SDS011;74539;43.518;1.504;2024-02-21T04:09:32;4.25;;;2.15;;
84355;SDS011;74539;43.518;1.504;2024-02-21T04:11:59;3.67;;;2.28;;
84355;SDS011;74539;43.518;1.504;2024-02-21T04:14:25;3.88;;;2.20;;
84355;SDS011;74539;43.518;1.504;2024-02-21T04:16:51;3.50;;;2.22;;
84355;SDS011;74539;43.518;1.504;2024-02-21T04:19:16;5.40;;;2.30;;
84355;SDS011;74539;43.518;1.504;2024-02-21T04:21:42;4.40;;;2.30;;
84355;SDS011;74539;43.518;1.504;2024-02-21T04:24:07;4.13;;;2.08;;
84355;SDS011;74539;43.518;1.504;2024-02-21T04:26:33;3.60;;;2.20;;
84355;SDS011;74539;43.518;1.504;2024-02-21T04:28:59;3.50;;;2.00;;
84355;SDS011;74539;43.518;1.504;2024-02-21T04:31:25;3.17;;;2.10;;
84355;SDS011;74539;43.518;1.504;2024-02-21T04:33:51;3.90;;;2.05;;
84355;SDS011;74539;43.518;1.504;2024-02-21T04:36:17;3.53;;;2.20;;
84355;SDS011;74539;43.518;1.504;2024-02-21T04:38:42;3.22;;;2.08;;
84355;SDS011;74539;43.518;1.504;2024-02-21T04:41:08;4.35;;;2.40;;
84355;SDS011;74539;43.518;1.504;2024-02-21T04:43:33;3.40;;;2.10;;
84355;SDS011;74539;43.518;1.504;2024-02-21T04:45:59;3.55;;;2.17;;
84355;SDS011;74539;43.518;1.504;2024-02-21T04:48:25;3.80;;;2.20;;
84355;SDS011;74539;43.518;1.504;2024-02-21T04:50:51;3.30;;;2.10;;
84355;SDS011;74539;43.518;1.504;2024-02-21T04:53:16;3.15;;;1.92;;
84355;SDS011;74539;43.518;1.504;2024-02-21T04:55:42;3.20;;;1.98;;
84355;SDS011;74539;43.518;1.504;2024-02-21T04:58:08;5.15;;;2.33;;
84355;SDS011;74539;43.518;1.504;2024-02-21T05:00:33;4.07;;;2.33;;
84355;SDS011;74539;43.518;1.504;2024-02-21T05:02:59;3.80;;;2.15;;
84355;SDS011;74539;43.518;1.504;2024-02-21T05:05:24;3.45;;;2.00;;
84355;SDS011;74539;43.518;1.504;2024-02-21T05:07:50;4.00;;;2.00;;
84355;SDS011;74539;43.518;1.504;2024-02-21T05:10:15;2.78;;;2.00;;
84355;SDS011;74539;43.518;1.504;2024-02-21T05:12:42;3.92;;;2.28;;
84355;SDS011;74539;43.518;1.504;2024-02-21T05:15:08;3.95;;;2.10;;
84355;SDS011;74539;43.518;1.504;2024-02-21T05:17:34;3.17;;;2.08;;
84355;SDS011;74539;43.518;1.504;2024-02-21T05:19:59;3.47;;;2.13;;
84355;SDS011;74539;43.518;1.504;2024-02-21T05:22:25;2.88;;;1.98;;
84355;SDS011;74539;43.518;1.504;2024-02-21T05:24:50;3.20;;;2.05;;
84355;SDS011;74539;43.518;1.504;2024-02-21T05:27:16;3.47;;;1.90;;
84355;SDS011;74539;43.518;1.504;2024-02-21T05:29:41;4.65;;;2.33;;
84355;SDS011;74539;43.518;1.504;2024-02-21T05:32:07;3.90;;;2.00;;
84355;SDS011;74539;43.518;1.504;2024-02-21T05:34:32;3.88;;;2.30;;
84355;SDS011;74539;43.518;1.504;2024-02-21T05:36:58;3.55;;;2.35;;
84355;SDS011;74539;43.518;1.504;2024-02-21T05:39:25;3.72;;;2.30;;
84355;SDS011;74539;43.518;1.504;2024-02-21T05:41:51;2.75;;;1.95;;
84355;SDS011;74539;43.518;1.504;2024-02-21T05:44:16;3.83;;;2.15;;
84355;SDS011;74539;43.518;1.504;2024-02-21T05:46:42;2.97;;;1.77;;
84355;SDS011;74539;43.518;1.504;2024-02-21T05:49:08;3.40;;;2.20;;
84355;SDS011;74539;43.518;1.504;2024-02-21T05:51:34;3.10;;;2.00;;
84355;SDS011;74539;43.518;1.504;2024-02-21T05:54:00;2.67;;;2.00;;
84355;SDS011;74539;43.518;1.504;2024-02-21T05:56:25;3.10;;;2.00;;
84355;SDS011;74539;43.518;1.504;2024-02-21T05:58:51;3.15;;;2.10;;
84355;SDS011;74539;43.518;1.504;2024-02-21T06:01:16;3.63;;;2.25;;
84355;SDS011;74539;43.518;1.504;2024-02-21T06:03:43;3.47;;;2.03;;
84355;SDS011;74539;43.518;1.504;2024-02-21T06:06:09;4.13;;;2.20;;
84355;SDS011;74539;43.518;1.504;2024-02-21T06:08:34;2.70;;;1.83;;
84355;SDS011;74539;43.518;1.504;2024-02-21T06:11:00;3.15;;;2.00;;
84355;SDS011;74539;43.518;1.504;2024-02-21T06:13:26;3.38;;;2.00;;
84355;SDS011;74539;43.518;1.504;2024-02-21T06:15:52;2.50;;;1.80;;
84355;SDS011;74539;43.518;1.504;2024-02-21T06:18:18;3.42;;;2.35;;
84355;SDS011;74539;43.518;1.504;2024-02-21T06:20:44;3.92;;;2.17;;
84355;SDS011;74539;43.518;1.504;2024-02-21T06:23:11;3.88;;;2.00;;
84355;SDS011;74539;43.518;1.504;2024-02-21T06:25:37;3.25;;;2.20;;
84355;SDS011;74539;43.518;1.504;2024-02-21T06:28:03;3.83;;;2.42;;
84355;SDS011;74539;43.518;1.504;2024-02-21T06:30:29;3.17;;;2.15;;
84355;SDS011;74539;43.518;1.504;2024-02-21T06:32:54;3.53;;;2.03;;
84355;SDS011;74539;43.518;1.504;2024-02-21T06:35:21;4.15;;;2.30;;
84355;SDS011;74539;43.518;1.504;2024-02-21T06:37:49;3.85;;;2.00;;
84355;SDS011;74539;43.518;1.504;2024-02-21T06:40:16;4.05;;;2.08;;
84355;SDS011;74539;43.518;1.504;2024-02-21T06:42:42;4.15;;;2.10;;
84355;SDS011;74539;43.518;1.504;2024-02-21T06:45:08;3.30;;;2.00;;
84355;SDS011;74539;43.518;1.504;2024-02-21T06:47:34;3.83;;;2.10;;
84355;SDS011;74539;43.518;1.504;2024-02-21T06:49:59;4.18;;;2.03;;
84355;SDS011;74539;43.518;1.504;2024-02-21T06:52:25;3.20;;;2.00;;
84355;SDS011;74539;43.518;1.504;2024-02-21T06:54:50;4.25;;;2.10;;
84355;SDS011;74539;43.518;1.504;2024-02-21T06:57:16;2.90;;;1.98;;
84355;SDS011;74539;43.518;1.504;2024-02-21T06:59:42;2.30;;;1.85;;
84355;SDS011;74539;43.518;1.504;2024-02-21T07:02:07;4.05;;;1.90;;
84355;SDS011;74539;43.518;1.504;2024-02-21T07:04:33;2.72;;;1.92;;
84355;SDS011;74539;43.518;1.504;2024-02-21T07:06:59;2.47;;;2.13;;
84355;SDS011;74539;43.518;1.504;2024-02-21T07:09:25;4.85;;;2.20;;
84355;SDS011;74539;43.518;1.504;2024-02-21T07:11:50;2.80;;;1.90;;
84355;SDS011;74539;43.518;1.504;2024-02-21T07:14:16;3.60;;;1.90;;
84355;SDS011;74539;43.518;1.504;2024-02-21T07:16:43;3.72;;;2.20;;
84355;SDS011;74539;43.518;1.504;2024-02-21T07:19:08;3.75;;;1.90;;
84355;SDS011;74539;43.518;1.504;2024-02-21T07:21:34;3.92;;;2.08;;
84355;SDS011;74539;43.518;1.504;2024-02-21T07:23:59;2.58;;;1.80;;
84355;SDS011;74539;43.518;1.504;2024-02-21T07:26:25;3.00;;;1.83;;
84355;SDS011;74539;43.518;1.504;2024-02-21T07:28:50;3.50;;;1.60;;
84355;SDS011;74539;43.518;1.504;2024-02-21T07:31:16;2.65;;;1.83;;
84355;SDS011;74539;43.518;1.504;2024-02-21T07:33:41;2.63;;;1.80;;
84355;SDS011;74539;43.518;1.504;2024-02-21T07:36:07;2.63;;;1.83;;
84355;SDS011;74539;43.518;1.504;2024-02-21T07:38:35;2.58;;;1.88;;
84355;SDS011;74539;43.518;1.504;2024-02-21T07:41:00;2.92;;;1.80;;
84355;SDS011;74539;43.518;1.504;2024-02-21T07:43:26;3.53;;;2.13;;
84355;SDS011;74539;43.518;1.504;2024-02-21T07:45:52;3.42;;;2.25;;
84355;SDS011;74539;43.518;1.504;2024-02-21T07:48:21;3.03;;;2.00;;
84355;SDS011;74539;43.518;1.504;2024-02-21T07:50:51;2.28;;;1.70;;
84355;SDS011;74539;43.518;1.504;2024-02-21T07:53:17;3.38;;;2.10;;
84355;SDS011;74539;43.518;1.504;2024-02-21T07:55:43;4.03;;;2.20;;
84355;SDS011;74539;43.518;1.504;2024-02-21T07:58:08;3.00;;;2.10;;
84355;SDS011;74539;43.518;1.504;2024-02-21T08:00:34;3.65;;;2.10;;
84355;SDS011;74539;43.518;1.504;2024-02-21T08:02:59;3.67;;;2.10;;
84355;SDS011;74539;43.518;1.504;2024-02-21T08:05:25;3.38;;;2.05;;
84355;SDS011;74539;43.518;1.504;2024-02-21T08:07:50;4.10;;;2.30;;
84355;SDS011;74539;43.518;1.504;2024-02-21T08:10:16;3.95;;;2.10;;
84355;SDS011;74539;43.518;1.504;2024-02-21T08:12:41;3.65;;;1.95;;
84355;SDS011;74539;43.518;1.504;2024-02-21T08:15:07;2.97;;;1.80;;
84355;SDS011;74539;43.518;1.504;2024-02-21T08:17:36;3.40;;;2.15;;
84355;SDS011;74539;43.518;1.504;2024-02-21T08:20:02;3.20;;;1.90;;
84355;SDS011;74539;43.518;1.504;2024-02-21T08:22:29;4.30;;;2.30;;
84355;SDS011;74539;43.518;1.504;2024-02-21T08:24:55;4.50;;;2.40;;
84355;SDS011;74539;43.518;1.504;2024-02-21T08:27:21;3.97;;;1.90;;
84355;SDS011;74539;43.518;1.504;2024-02-21T08:29:46;3.15;;;2.05;;
84355;SDS011;74539;43.518;1.504;2024-02-21T08:32:12;3.95;;;2.10;;
84355;SDS011;74539;43.518;1.504;2024-02-21T08:34:37;3.47;;;2.10;;
84355;SDS011;74539;43.518;1.504;2024-02-21T08:37:03;3.80;;;2.17;;
84355;SDS011;74539;43.518;1.504;2024-02-21T08:39:29;4.30;;;2.25;;
84355;SDS011;74539;43.518;1.504;2024-02-21T08:41:55;3.95;;;1.90;;
84355;SDS011;74539;43.518;1.504;2024-02-21T08:44:22;3.42;;;2.17;;
84355;SDS011;74539;43.518;1.504;2024-02-21T08:46:53;3.50;;;2.20;;
84355;SDS011;74539;43.518;1.504;2024-02-21T08:49:19;3.72;;;2.15;;
84355;SDS011;74539;43.518;1.504;2024-02-21T08:51:45;2.90;;;1.95;;
84355;SDS011;74539;43.518;1.504;2024-02-21T08:54:11;4.32;;;2.03;;
84355;SDS011;74539;43.518;1.504;2024-02-21T08:56:37;4.05;;;2.30;;
84355;SDS011;74539;43.518;1.504;2024-02-21T08:59:03;2.50;;;1.90;;
84355;SDS011;74539;43.518;1.504;2024-02-21T09:01:28;3.28;;;2.10;;
84355;SDS011;74539;43.518;1.504;2024-02-21T09:03:54;2.42;;;1.90;;
84355;SDS011;74539;43.518;1.504;2024-02-21T09:06:21;3.17;;;2.00;;
84355;SDS011;74539;43.518;1.504;2024-02-21T09:08:47;3.30;;;2.22;;
84355;SDS011;74539;43.518;1.504;2024-02-21T09:11:13;2.75;;;1.90;;
84355;SDS011;74539;43.518;1.504;2024-02-21T09:13:39;3.28;;;2.08;;
84355;SDS011;74539;43.518;1.504;2024-02-21T09:16:04;3.78;;;1.90;;
84355;SDS011;74539;43.518;1.504;2024-02-21T09:18:31;4.35;;;2.47;;
84355;SDS011;74539;43.518;1.504;2024-02-21T09:20:56;4.70;;;2.28;;
84355;SDS011;74539;43.518;1.504;2024-02-21T09:23:25;3.28;;;2.00;;
84355;SDS011;74539;43.518;1.504;2024-02-21T09:25:51;3.53;;;1.95;;
84355;SDS011;74539;43.518;1.504;2024-02-21T09:28:16;3.50;;;2.20;;
84355;SDS011;74539;43.518;1.504;2024-02-21T09:30:42;3.08;;;2.00;;
84355;SDS011;74539;43.518;1.504;2024-02-21T09:33:08;3.30;;;2.03;;
84355;SDS011;74539;43.518;1.504;2024-02-21T09:35:33;3.38;;;2.13;;
84355;SDS011;74539;43.518;1.504;2024-02-21T09:37:59;2.95;;;1.95;;
84355;SDS011;74539;43.518;1.504;2024-02-21T09:40:25;3.00;;;2.03;;
84355;SDS011;74539;43.518;1.504;2024-02-21T09:42:54;4.03;;;2.17;;
84355;SDS011;74539;43.518;1.504;2024-02-21T09:45:32;3.08;;;2.10;;
84355;SDS011;74539;43.518;1.504;2024-02-21T09:50:49;2.92;;;1.90;;
84355;SDS011;74539;43.518;1.504;2024-02-21T09:53:16;2.75;;;2.00;;
84355;SDS011;74539;43.518;1.504;2024-02-21T09:55:44;2.33;;;1.73;;
84355;SDS011;74539;43.518;1.504;2024-02-21T09:58:11;4.50;;;1.92;;
84355;SDS011;74539;43.518;1.504;2024-02-21T10:00:38;2.88;;;1.70;;
84355;SDS011;74539;43.518;1.504;2024-02-21T10:03:03;2.50;;;1.63;;
84355;SDS011;74539;43.518;1.504;2024-02-21T10:05:35;2.85;;;1.98;;
84355;SDS011;74539;43.518;1.504;2024-02-21T10:08:01;2.67;;;1.70;;
84355;SDS011;74539;43.518;1.504;2024-02-21T10:10:27;3.10;;;1.75;;
84355;SDS011;74539;43.518;1.504;2024-02-21T10:12:54;1.90;;;1.67;;
84355;SDS011;74539;43.518;1.504;2024-02-21T10:15:21;2.55;;;1.40;;
84355;SDS011;74539;43.518;1.504;2024-02-21T10:17:48;2.22;;;1.75;;
84355;SDS011;74539;43.518;1.504;2024-02-21T10:20:13;2.28;;;1.50;;
84355;SDS011;74539;43.518;1.504;2024-02-21T10:22:41;2.25;;;1.50;;
84355;SDS011;74539;43.518;1.504;2024-02-21T10:25:10;2.25;;;1.17;;
84355;SDS011;74539;43.518;1.504;2024-02-21T10:27:37;2.08;;;1.40;;
84355;SDS011;74539;43.518;1.504;2024-02-21T10:30:05;1.98;;;1.30;;
84355;SDS011;74539;43.518;1.504;2024-02-21T10:32:32;1.35;;;1.17;;
84355;SDS011;74539;43.518;1.504;2024-02-21T10:35:04;2.28;;;1.48;;
84355;SDS011;74539;43.518;1.504;2024-02-21T10:37:30;2.55;;;1.50;;
84355;SDS011;74539;43.518;1.504;2024-02-21T10:39:57;2.40;;;1.40;;
84355;SDS011;74539;43.518;1.504;2024-02-21T10:42:22;1.98;;;1.20;;
84355;SDS011;74539;43.518;1.504;2024-02-21T10:44:51;2.10;;;1.33;;
84355;SDS011;74539;43.518;1.504;2024-02-21T10:47:19;2.17;;;1.42;;
84355;SDS011;74539;43.518;1.504;2024-02-21T10:49:49;2.42;;;1.40;;
84355;SDS011;74539;43.518;1.504;2024-02-21T10:55:03;2.50;;;1.30;;
84355;SDS011;74539;43.518;1.504;2024-02-21T10:57:31;1.92;;;1.30;;
84355;SDS011;74539;43.518;1.504;2024-02-21T10:59:58;1.73;;;1.10;;
84355;SDS011;74539;43.518;1.504;2024-02-21T11:02:24;2.15;;;1.20;;
84355;SDS011;74539;43.518;1.504;2024-02-21T11:04:51;1.35;;;1.20;;
84355;SDS011;74539;43.518;1.504;2024-02-21T11:07:19;2.65;;;1.20;;
84355;SDS011;74539;43.518;1.504;2024-02-21T11:09:52;1.52;;;1.10;;
84355;SDS011;74539;43.518;1.504;2024-02-21T11:12:22;1.38;;;1.10;;
84355;SDS011;74539;43.518;1.504;2024-02-21T11:14:48;2.03;;;1.15;;
84355;SDS011;74539;43.518;1.504;2024-02-21T11:17:14;1.65;;;0.95;;
84355;SDS011;74539;43.518;1.504;2024-02-21T11:19:43;1.60;;;1.05;;
84355;SDS011;74539;43.518;1.504;2024-02-21T11:22:16;1.40;;;1.10;;
84355;SDS011;74539;43.518;1.504;2024-02-21T11:24:43;1.42;;;0.95;;
84355;SDS011;74539;43.518;1.504;2024-02-21T11:27:15;1.83;;;0.98;;
84355;SDS011;74539;43.518;1.504;2024-02-21T11:29:45;1.92;;;1.13;;
84355;SDS011;74539;43.518;1.504;2024-02-21T11:32:13;1.85;;;1.00;;
84355;SDS011;74539;43.518;1.504;2024-02-21T11:34:40;2.10;;;0.80;;
84355;SDS011;74539;43.518;1.504;2024-02-21T11:37:15;1.48;;;0.90;;
84355;SDS011;74539;43.518;1.504;2024-02-21T11:39:43;1.25;;;0.90;;
84355;SDS011;74539;43.518;1.504;2024-02-21T11:42:09;1.30;;;1.00;;
84355;SDS011;74539;43.518;1.504;2024-02-21T11:44:35;1.40;;;0.98;;
84355;SDS011;74539;43.518;1.504;2024-02-21T11:47:08;1.00;;;0.73;;
84355;SDS011;74539;43.518;1.504;2024-02-21T11:49:38;1.35;;;0.90;;
84355;SDS011;74539;43.518;1.504;2024-02-21T11:52:08;1.38;;;0.85;;
84355;SDS011;74539;43.518;1.504;2024-02-21T11:54:33;0.93;;;0.75;;
84355;SDS011;74539;43.518;1.504;2024-02-21T11:57:00;0.98;;;0.80;;
84355;SDS011;74539;43.518;1.504;2024-02-21T11:59:26;1.35;;;1.00;;
84355;SDS011;74539;43.518;1.504;2024-02-21T12:01:52;1.92;;;1.00;;
84355;SDS011;74539;43.518;1.504;2024-02-21T12:04:18;1.67;;;0.90;;
84355;SDS011;74539;43.518;1.504;2024-02-21T12:06:45;1.55;;;0.90;;
84355;SDS011;74539;43.518;1.504;2024-02-21T12:09:14;0.90;;;0.60;;
84355;SDS011;74539;43.518;1.504;2024-02-21T12:11:44;0.95;;;0.80;;
84355;SDS011;74539;43.518;1.504;2024-02-21T12:14:11;1.35;;;0.70;;
84355;SDS011;74539;43.518;1.504;2024-02-21T12:16:42;1.55;;;0.80;;
84355;SDS011;74539;43.518;1.504;2024-02-21T12:19:12;1.17;;;0.80;;
84355;SDS011;74539;43.518;1.504;2024-02-21T12:21:38;0.90;;;0.77;;
84355;SDS011;74539;43.518;1.504;2024-02-21T12:26:46;1.67;;;0.80;;
84355;SDS011;74539;43.518;1.504;2024-02-21T12:29:11;1.50;;;0.88;;
84355;SDS011;74539;43.518;1.504;2024-02-21T12:31:37;1.85;;;0.80;;
84355;SDS011;74539;43.518;1.504;2024-02-21T12:34:03;1.95;;;0.90;;
84355;SDS011;74539;43.518;1.504;2024-02-21T12:36:30;2.63;;;0.70;;
84355;SDS011;74539;43.518;1.504;2024-02-21T12:39:01;1.85;;;1.00;;
84355;SDS011;74539;43.518;1.504;2024-02-21T12:41:28;1.75;;;0.80;;
84355;SDS011;74539;43.518;1.504;2024-02-21T12:43:55;1.95;;;0.80;;
84355;SDS011;74539;43.518;1.504;2024-02-21T12:46:21;1.35;;;0.73;;
84355;SDS011;74539;43.518;1.504;2024-02-21T12:48:47;1.00;;;0.80;;
84355;SDS011;74539;43.518;1.504;2024-02-21T12:51:13;1.40;;;0.80;;
84355;SDS011;74539;43.518;1.504;2024-02-21T12:53:39;1.85;;;0.80;;
84355;SDS011;74539;43.518;1.504;2024-02-21T12:56:04;1.40;;;0.80;;
84355;SDS011;74539;43.518;1.504;2024-02-21T12:58:35;1.58;;;0.80;;
84355;SDS011;74539;43.518;1.504;2024-02-21T13:01:01;1.67;;;1.05;;
84355;SDS011;74539;43.518;1.504;2024-02-21T13:03:26;1.65;;;0.80;;
84355;SDS011;74539;43.518;1.504;2024-02-21T13:05:52;1.98;;;0.95;;
84355;SDS011;74539;43.518;1.504;2024-02-21T13:08:17;1.45;;;0.80;;
84355;SDS011;74539;43.518;1.504;2024-02-21T13:10:47;0.90;;;0.80;;
84355;SDS011;74539;43.518;1.504;2024-02-21T13:13:14;1.15;;;0.90;;
84355;SDS011;74539;43.518;1.504;2024-02-21T13:15:39;1.38;;;0.70;;
84355;SDS011;74539;43.518;1.504;2024-02-21T13:18:08;1.42;;;0.80;;
84355;SDS011;74539;43.518;1.504;2024-02-21T13:20:34;1.80;;;0.77;;
84355;SDS011;74539;43.518;1.504;2024-02-21T13:23:00;0.73;;;0.60;;
84355;SDS011;74539;43.518;1.504;2024-02-21T13:25:26;0.95;;;0.68;;
84355;SDS011;74539;43.518;1.504;2024-02-21T13:27:51;1.35;;;0.70;;
84355;SDS011;74539;43.518;1.504;2024-02-21T13:30:17;1.25;;;0.80;;
84355;SDS011;74539;43.518;1.504;2024-02-21T13:32:43;1.48;;;0.90;;
84355;SDS011;74539;43.518;1.504;2024-02-21T13:35:11;1.50;;;0.90;;
84355;SDS011;74539;43.518;1.504;2024-02-21T13:37:40;1.38;;;0.85;;
84355;SDS011;74539;43.518;1.504;2024-02-21T13:40:07;1.38;;;0.75;;
84355;SDS011;74539;43.518;1.504;2024-02-21T13:42:36;2.05;;;0.80;;
84355;SDS011;74539;43.518;1.504;2024-02-21T13:45:03;1.23;;;0.88;;
84355;SDS011;74539;43.518;1.504;2024-02-21T13:47:30;1.27;;;0.80;;
84355;SDS011;74539;43.518;1.504;2024-02-21T13:49:56;1.83;;;0.88;;
84355;SDS011;74539;43.518;1.504;2024-02-21T13:52:22;0.80;;;0.70;;
84355;SDS011;74539;43.518;1.504;2024-02-21T13:54:48;1.00;;;0.70;;
84355;SDS011;74539;43.518;1.504;2024-02-21T13:57:13;0.82;;;0.63;;
84355;SDS011;74539;43.518;1.504;2024-02-21T13:59:39;1.73;;;0.73;;
84355;SDS011;74539;43.518;1.504;2024-02-21T14:02:05;3.05;;;1.08;;
84355;SDS011;74539;43.518;1.504;2024-02-21T14:04:34;1.33;;;0.90;;
84355;SDS011;74539;43.518;1.504;2024-02-21T14:07:00;1.23;;;0.73;;
84355;SDS011;74539;43.518;1.504;2024-02-21T14:09:25;1.33;;;0.60;;
84355;SDS011;74539;43.518;1.504;2024-02-21T14:11:51;1.30;;;0.73;;
84355;SDS011;74539;43.518;1.504;2024-02-21T14:14:17;1.98;;;0.80;;
84355;SDS011;74539;43.518;1.504;2024-02-21T14:16:43;1.90;;;0.82;;
84355;SDS011;74539;43.518;1.504;2024-02-21T14:19:08;0.98;;;0.77;;
84355;SDS011;74539;43.518;1.504;2024-02-21T14:21:34;1.88;;;0.93;;
84355;SDS011;74539;43.518;1.504;2024-02-21T14:24:03;1.38;;;0.60;;
84355;SDS011;74539;43.518;1.504;2024-02-21T14:26:29;1.23;;;0.75;;
84355;SDS011;74539;43.518;1.504;2024-02-21T14:28:56;1.75;;;1.00;;
84355;SDS011;74539;43.518;1.504;2024-02-21T14:31:22;1.27;;;0.90;;
84355;SDS011;74539;43.518;1.504;2024-02-21T14:33:48;1.60;;;1.00;;
84355;SDS011;74539;43.518;1.504;2024-02-21T14:36:13;1.08;;;0.88;;
84355;SDS011;74539;43.518;1.504;2024-02-21T14:38:40;2.15;;;0.90;;
84355;SDS011;74539;43.518;1.504;2024-02-21T14:41:08;1.50;;;0.80;;
84355;SDS011;74539;43.518;1.504;2024-02-21T14:43:34;1.25;;;0.70;;
84355;SDS011;74539;43.518;1.504;2024-02-21T14:46:00;0.60;;;0.60;;
84355;SDS011;74539;43.518;1.504;2024-02-21T14:48:29;1.58;;;0.77;;
84355;SDS011;74539;43.518;1.504;2024-02-21T14:50:56;1.52;;;0.90;;